sensor_id;sensor_type;location;lat;lon;timestamp;pressure;altitude;pressure_sealevel;temperature;humidity
54262;BME280;40174;52.364;6.452;2023-07-20T00:01:49;101198.09;;;16.46;100.00
54262;BME280;40174;52.364;6.452;2023-07-20T00:04:16;101196.41;;;16.45;100.00
54262;BME280;40174;52.364;6.452;2023-07-20T00:06:42;101198.25;;;16.45;100.00
54262;BME280;40174;52.364;6.452;2023-07-20T00:09:09;101197.19;;;16.37;100.00
54262;BME280;40174;52.364;6.452;2023-07-20T00:11:37;101201.69;;;16.37;100.00
54262;BME280;40174;52.364;6.452;2023-07-20T00:14:04;101192.00;;;16.36;100.00
54262;BME280;40174;52.364;6.452;2023-07-20T00:16:32;101194.97;;;16.33;100.00
54262;BME280;40174;52.364;6.452;2023-07-20T00:18:58;101195.13;;;16.31;100.00
54262;BME280;40174;52.364;6.452;2023-07-20T00:21:25;101195.88;;;16.24;100.00
54262;BME280;40174;52.364;6.452;2023-07-20T00:23:52;101181.88;;;16.21;100.00
54262;BME280;40174;52.364;6.452;2023-07-20T00:26:19;101186.97;;;16.15;100.00
54262;BME280;40174;52.364;6.452;2023-07-20T00:28:46;101180.63;;;16.16;100.00
54262;BME280;40174;52.364;6.452;2023-07-20T00:31:12;101187.41;;;16.10;100.00
54262;BME280;40174;52.364;6.452;2023-07-20T00:33:40;101184.19;;;16.07;100.00
54262;BME280;40174;52.364;6.452;2023-07-20T00:36:07;101183.38;;;16.06;100.00
54262;BME280;40174;52.364;6.452;2023-07-20T00:38:34;101185.03;;;16.07;100.00
54262;BME280;40174;52.364;6.452;2023-07-20T00:41:01;101181.28;;;16.00;100.00
54262;BME280;40174;52.364;6.452;2023-07-20T00:43:27;101181.28;;;16.00;100.00
54262;BME280;40174;52.364;6.452;2023-07-20T00:45:55;101176.56;;;15.94;100.00
54262;BME280;40174;52.364;6.452;2023-07-20T00:48:23;101184.88;;;15.91;100.00
54262;BME280;40174;52.364;6.452;2023-07-20T00:50:51;101188.13;;;15.85;100.00
54262;BME280;40174;52.364;6.452;2023-07-20T00:53:18;101187.03;;;15.77;100.00
54262;BME280;40174;52.364;6.452;2023-07-20T00:55:45;101188.59;;;15.70;100.00
54262;BME280;40174;52.364;6.452;2023-07-20T00:58:12;101188.59;;;15.70;100.00
54262;BME280;40174;52.364;6.452;2023-07-20T01:00:39;101188.91;;;15.67;100.00
54262;BME280;40174;52.364;6.452;2023-07-20T01:03:05;101188.34;;;15.64;100.00
54262;BME280;40174;52.364;6.452;2023-07-20T01:05:40;101183.97;;;15.63;100.00
54262;BME280;40174;52.364;6.452;2023-07-20T01:08:13;101190.06;;;15.55;100.00
54262;BME280;40174;52.364;6.452;2023-07-20T01:10:46;101189.22;;;15.54;100.00
54262;BME280;40174;52.364;6.452;2023-07-20T01:13:18;101189.38;;;15.53;100.00
54262;BME280;40174;52.364;6.452;2023-07-20T01:15:49;101181.81;;;15.48;100.00
54262;BME280;40174;52.364;6.452;2023-07-20T01:18:16;101188.59;;;15.43;100.00
54262;BME280;40174;52.364;6.452;2023-07-20T01:20:43;101188.41;;;15.44;100.00
54262;BME280;40174;52.364;6.452;2023-07-20T01:26:22;101191.63;;;15.48;100.00
54262;BME280;40174;52.364;6.452;2023-07-20T01:29:13;101198.53;;;15.41;100.00
54262;BME280;40174;52.364;6.452;2023-07-20T01:31:46;101196.00;;;15.39;100.00
54262;BME280;40174;52.364;6.452;2023-07-20T01:34:17;101193.47;;;15.37;100.00
54262;BME280;40174;52.364;6.452;2023-07-20T01:36:46;101189.84;;;15.38;100.00
54262;BME280;40174;52.364;6.452;2023-07-20T01:39:14;101190.28;;;15.34;100.00
54262;BME280;40174;52.364;6.452;2023-07-20T01:41:42;101183.72;;;15.28;100.00
54262;BME280;40174;52.364;6.452;2023-07-20T01:44:09;101198.97;;;15.26;100.00
54262;BME280;40174;52.364;6.452;2023-07-20T01:46:36;101186.66;;;15.25;100.00
54262;BME280;40174;52.364;6.452;2023-07-20T01:49:04;101184.16;;;15.24;100.00
54262;BME280;40174;52.364;6.452;2023-07-20T01:51:31;101189.72;;;15.30;100.00
54262;BME280;40174;52.364;6.452;2023-07-20T01:53:58;101186.63;;;15.35;100.00
54262;BME280;40174;52.364;6.452;2023-07-20T01:56:26;101179.47;;;15.35;100.00
54262;BME280;40174;52.364;6.452;2023-07-20T01:58:52;101195.19;;;15.38;100.00
54262;BME280;40174;52.364;6.452;2023-07-20T02:01:19;101193.22;;;15.41;100.00
54262;BME280;40174;52.364;6.452;2023-07-20T02:03:46;101193.47;;;15.37;100.00
54262;BME280;40174;52.364;6.452;2023-07-20T02:06:14;101189.59;;;15.32;100.00
54262;BME280;40174;52.364;6.452;2023-07-20T02:08:40;101191.44;;;15.31;100.00
54262;BME280;40174;52.364;6.452;2023-07-20T02:11:07;101198.41;;;15.32;100.00
54262;BME280;40174;52.364;6.452;2023-07-20T02:13:35;101197.72;;;15.30;100.00
54262;BME280;40174;52.364;6.452;2023-07-20T02:16:02;101189.72;;;15.30;100.00
54262;BME280;40174;52.364;6.452;2023-07-20T02:18:29;101192.53;;;15.29;100.00
54262;BME280;40174;52.364;6.452;2023-07-20T02:20:55;101191.00;;;15.26;100.00
54262;BME280;40174;52.364;6.452;2023-07-20T02:23:23;101179.66;;;15.24;100.00
54262;BME280;40174;52.364;6.452;2023-07-20T02:25:50;101192.44;;;15.21;100.00
54262;BME280;40174;52.364;6.452;2023-07-20T02:28:17;101186.28;;;15.20;100.00
54262;BME280;40174;52.364;6.452;2023-07-20T02:30:44;101184.88;;;15.16;100.00
54262;BME280;40174;52.364;6.452;2023-07-20T02:33:10;101192.31;;;15.12;100.00
54262;BME280;40174;52.364;6.452;2023-07-20T02:35:37;101191.59;;;15.10;100.00
54262;BME280;40174;52.364;6.452;2023-07-20T02:38:04;101195.25;;;15.09;100.00
54262;BME280;40174;52.364;6.452;2023-07-20T02:40:33;101192.88;;;15.06;100.00
54262;BME280;40174;52.364;6.452;2023-07-20T02:43:01;101195.97;;;15.02;100.00
54262;BME280;40174;52.364;6.452;2023-07-20T02:45:28;101200.75;;;14.98;100.00
54262;BME280;40174;52.364;6.452;2023-07-20T02:47:54;101204.25;;;14.99;100.00
54262;BME280;40174;52.364;6.452;2023-07-20T02:50:22;101204.09;;;14.90;100.00
54262;BME280;40174;52.364;6.452;2023-07-20T02:52:48;101205.09;;;14.89;100.00
54262;BME280;40174;52.364;6.452;2023-07-20T02:55:15;101209.84;;;14.86;100.00
54262;BME280;40174;52.364;6.452;2023-07-20T02:57:44;101202.44;;;14.80;100.00
54262;BME280;40174;52.364;6.452;2023-07-20T03:00:11;101204.56;;;14.76;100.00
54262;BME280;40174;52.364;6.452;2023-07-20T03:02:41;101209.88;;;14.76;100.00
54262;BME280;40174;52.364;6.452;2023-07-20T03:05:08;101211.53;;;14.77;100.00
54262;BME280;40174;52.364;6.452;2023-07-20T03:07:35;101213.50;;;14.75;100.00
54262;BME280;40174;52.364;6.452;2023-07-20T03:10:02;101222.47;;;14.74;100.00
54262;BME280;40174;52.364;6.452;2023-07-20T03:12:29;101217.59;;;14.69;100.00
54262;BME280;40174;52.364;6.452;2023-07-20T03:14:57;101218.97;;;14.64;100.00
54262;BME280;40174;52.364;6.452;2023-07-20T03:17:25;101213.25;;;14.59;100.00
54262;BME280;40174;52.364;6.452;2023-07-20T03:19:51;101203.13;;;14.52;100.00
54262;BME280;40174;52.364;6.452;2023-07-20T03:22:18;101213.63;;;14.54;100.00
54262;BME280;40174;52.364;6.452;2023-07-20T03:24:46;101217.97;;;14.55;100.00
54262;BME280;40174;52.364;6.452;2023-07-20T03:27:13;101218.09;;;14.53;100.00
54262;BME280;40174;52.364;6.452;2023-07-20T03:29:40;101222.72;;;14.51;100.00
54262;BME280;40174;52.364;6.452;2023-07-20T03:32:08;101223.16;;;14.47;100.00
54262;BME280;40174;52.364;6.452;2023-07-20T03:34:35;101232.09;;;14.46;100.00
54262;BME280;40174;52.364;6.452;2023-07-20T03:37:02;101214.59;;;14.43;100.00
54262;BME280;40174;52.364;6.452;2023-07-20T03:39:30;101222.56;;;14.43;100.00
54262;BME280;40174;52.364;6.452;2023-07-20T03:41:57;101219.06;;;14.43;100.00
54262;BME280;40174;52.364;6.452;2023-07-20T03:44:24;101226.22;;;14.42;100.00
54262;BME280;40174;52.364;6.452;2023-07-20T03:46:51;101218.78;;;14.36;100.00
54262;BME280;40174;52.364;6.452;2023-07-20T03:49:19;101229.44;;;14.36;100.00
54262;BME280;40174;52.364;6.452;2023-07-20T03:51:45;101235.56;;;14.37;100.00
54262;BME280;40174;52.364;6.452;2023-07-20T03:54:12;101230.53;;;14.33;100.00
54262;BME280;40174;52.364;6.452;2023-07-20T03:56:39;101230.84;;;14.40;100.00
54262;BME280;40174;52.364;6.452;2023-07-20T03:59:06;101240.63;;;14.40;100.00
54262;BME280;40174;52.364;6.452;2023-07-20T04:01:32;101233.75;;;14.37;100.00
54262;BME280;40174;52.364;6.452;2023-07-20T04:04:04;101237.28;;;14.38;100.00
54262;BME280;40174;52.364;6.452;2023-07-20T04:06:33;101235.44;;;14.38;100.00
54262;BME280;40174;52.364;6.452;2023-07-20T04:09:00;101231.97;;;14.38;100.00
54262;BME280;40174;52.364;6.452;2023-07-20T04:11:26;101235.56;;;14.37;100.00
54262;BME280;40174;52.364;6.452;2023-07-20T04:13:53;101236.69;;;14.34;100.00
54262;BME280;40174;52.364;6.452;2023-07-20T04:16:21;101235.56;;;14.37;100.00
54262;BME280;40174;52.364;6.452;2023-07-20T04:18:48;101227.19;;;14.31;100.00
54262;BME280;40174;52.364;6.452;2023-07-20T04:21:15;101236.28;;;14.29;100.00
54262;BME280;40174;52.364;6.452;2023-07-20T04:23:43;101238.81;;;14.30;100.00
54262;BME280;40174;52.364;6.452;2023-07-20T04:26:10;101232.91;;;14.27;100.00
54262;BME280;40174;52.364;6.452;2023-07-20T04:28:38;101235.28;;;14.30;100.00
54262;BME280;40174;52.364;6.452;2023-07-20T04:31:11;101240.59;;;14.30;100.00
54262;BME280;40174;52.364;6.452;2023-07-20T04:33:38;101245.94;;;14.30;100.00
54262;BME280;40174;52.364;6.452;2023-07-20T04:36:05;101247.75;;;14.29;100.00
54262;BME280;40174;52.364;6.452;2023-07-20T04:38:34;101238.38;;;14.25;100.00
54262;BME280;40174;52.364;6.452;2023-07-20T04:41:12;101246.91;;;14.29;100.00
54262;BME280;40174;52.364;6.452;2023-07-20T04:43:42;101246.09;;;14.28;100.00
54262;BME280;40174;52.364;6.452;2023-07-20T04:46:10;101248.03;;;14.26;100.00
54262;BME280;40174;52.364;6.452;2023-07-20T04:48:37;101252.50;;;14.26;100.00
54262;BME280;40174;52.364;6.452;2023-07-20T04:51:06;101259.06;;;14.22;100.00
54262;BME280;40174;52.364;6.452;2023-07-20T04:53:32;101250.53;;;14.18;100.00
54262;BME280;40174;52.364;6.452;2023-07-20T04:56:00;101261.88;;;14.20;100.00
54262;BME280;40174;52.364;6.452;2023-07-20T04:58:29;101256.41;;;14.22;100.00
54262;BME280;40174;52.364;6.452;2023-07-20T05:00:56;101252.50;;;14.26;100.00
54262;BME280;40174;52.364;6.452;2023-07-20T05:03:22;101266.91;;;14.23;100.00
54262;BME280;40174;52.364;6.452;2023-07-20T05:05:49;101259.22;;;14.20;100.00
54262;BME280;40174;52.364;6.452;2023-07-20T05:08:16;101263.41;;;14.23;100.00
54262;BME280;40174;52.364;6.452;2023-07-20T05:10:43;101267.59;;;14.25;100.00
54262;BME280;40174;52.364;6.452;2023-07-20T05:13:10;101256.53;;;14.20;100.00
54262;BME280;40174;52.364;6.452;2023-07-20T05:15:38;101267.75;;;14.24;100.00
54262;BME280;40174;52.364;6.452;2023-07-20T05:18:09;101263.41;;;14.23;100.00
54262;BME280;40174;52.364;6.452;2023-07-20T05:20:36;101262.69;;;14.21;100.00
54262;BME280;40174;52.364;6.452;2023-07-20T05:23:03;101263.13;;;14.26;100.00
54262;BME280;40174;52.364;6.452;2023-07-20T05:25:30;101266.06;;;14.23;100.00
54262;BME280;40174;52.364;6.452;2023-07-20T05:27:56;101269.72;;;14.22;100.00
54262;BME280;40174;52.364;6.452;2023-07-20T05:30:23;101269.56;;;14.23;100.00
54262;BME280;40174;52.364;6.452;2023-07-20T05:32:51;101268.72;;;14.23;100.00
54262;BME280;40174;52.364;6.452;2023-07-20T05:35:19;101274.75;;;14.25;100.00
54262;BME280;40174;52.364;6.452;2023-07-20T05:37:47;101274.88;;;14.23;100.00
54262;BME280;40174;52.364;6.452;2023-07-20T05:40:14;101274.63;;;14.26;100.00
54262;BME280;40174;52.364;6.452;2023-07-20T05:42:44;101272.91;;;14.25;100.00
54262;BME280;40174;52.364;6.452;2023-07-20T05:45:11;101274.63;;;14.26;100.00
54262;BME280;40174;52.364;6.452;2023-07-20T05:47:38;101272.91;;;14.25;100.00
54262;BME280;40174;52.364;6.452;2023-07-20T05:50:07;101269.84;;;14.30;100.00
54262;BME280;40174;52.364;6.452;2023-07-20T05:52:33;101279.38;;;14.32;100.00
54262;BME280;40174;52.364;6.452;2023-07-20T05:55:00;101277.41;;;14.34;100.00
54262;BME280;40174;52.364;6.452;2023-07-20T05:57:26;101283.31;;;14.38;100.00
54262;BME280;40174;52.364;6.452;2023-07-20T05:59:53;101287.50;;;14.41;100.00
54262;BME280;40174;52.364;6.452;2023-07-20T06:02:20;101276.75;;;14.42;100.00
54262;BME280;40174;52.364;6.452;2023-07-20T06:04:46;101282.78;;;14.44;100.00
54262;BME280;40174;52.364;6.452;2023-07-20T06:07:14;101293.84;;;14.49;100.00
54262;BME280;40174;52.364;6.452;2023-07-20T06:09:41;101290.19;;;14.50;100.00
54262;BME280;40174;52.364;6.452;2023-07-20T06:12:09;101294.41;;;14.53;100.00
54262;BME280;40174;52.364;6.452;2023-07-20T06:14:35;101303.81;;;14.57;100.00
54262;BME280;40174;52.364;6.452;2023-07-20T06:17:02;101291.63;;;14.54;100.00
54262;BME280;40174;52.364;6.452;2023-07-20T06:19:29;101303.97;;;14.65;100.00
54262;BME280;40174;52.364;6.452;2023-07-20T06:21:56;101305.38;;;14.69;100.00
54262;BME280;40174;52.364;6.452;2023-07-20T06:24:24;101302.44;;;14.72;100.00
54262;BME280;40174;52.364;6.452;2023-07-20T06:26:50;101306.91;;;14.82;100.00
54262;BME280;40174;52.364;6.452;2023-07-20T06:29:17;101310.72;;;14.89;100.00
54262;BME280;40174;52.364;6.452;2023-07-20T06:31:44;101304.41;;;14.90;100.00
54262;BME280;40174;52.364;6.452;2023-07-20T06:34:11;101298.09;;;14.91;100.00
54262;BME280;40174;52.364;6.452;2023-07-20T06:36:38;101306.34;;;14.97;100.00
54262;BME280;40174;52.364;6.452;2023-07-20T06:39:04;101311.00;;;15.05;100.00
54262;BME280;40174;52.364;6.452;2023-07-20T06:41:32;101312.41;;;15.09;100.00
54262;BME280;40174;52.364;6.452;2023-07-20T06:43:59;101307.47;;;15.14;100.00
54262;BME280;40174;52.364;6.452;2023-07-20T06:46:26;101302.03;;;15.16;100.00
54262;BME280;40174;52.364;6.452;2023-07-20T06:48:53;101307.06;;;15.19;100.00
54262;BME280;40174;52.364;6.452;2023-07-20T06:51:20;101302.13;;;15.24;100.00
54262;BME280;40174;52.364;6.452;2023-07-20T06:53:47;101310.56;;;15.29;100.00
54262;BME280;40174;52.364;6.452;2023-07-20T06:56:14;101310.84;;;15.36;100.00
54262;BME280;40174;52.364;6.452;2023-07-20T06:58:42;101309.53;;;15.50;100.00
54262;BME280;40174;52.364;6.452;2023-07-20T07:01:08;101320.44;;;15.66;100.00
54262;BME280;40174;52.364;6.452;2023-07-20T07:03:35;101320.59;;;15.74;100.00
54262;BME280;40174;52.364;6.452;2023-07-20T07:06:03;101318.88;;;15.83;100.00
54262;BME280;40174;52.364;6.452;2023-07-20T07:08:29;101326.25;;;15.99;100.00
54262;BME280;40174;52.364;6.452;2023-07-20T07:10:56;101326.25;;;15.99;100.00
54262;BME280;40174;52.364;6.452;2023-07-20T07:13:23;101325.25;;;16.00;100.00
54262;BME280;40174;52.364;6.452;2023-07-20T07:15:51;101326.94;;;16.01;100.00
54262;BME280;40174;52.364;6.452;2023-07-20T07:18:18;101335.19;;;16.08;100.00
54262;BME280;40174;52.364;6.452;2023-07-20T07:20:54;101331.94;;;16.14;100.00
54262;BME280;40174;52.364;6.452;2023-07-20T07:23:21;101331.47;;;16.28;100.00
54262;BME280;40174;52.364;6.452;2023-07-20T07:25:48;101328.72;;;16.38;100.00
54262;BME280;40174;52.364;6.452;2023-07-20T07:28:15;101338.81;;;16.44;100.00
54262;BME280;40174;52.364;6.452;2023-07-20T07:30:41;101333.25;;;16.55;100.00
54262;BME280;40174;52.364;6.452;2023-07-20T07:33:09;101334.41;;;16.53;100.00
54262;BME280;40174;52.364;6.452;2023-07-20T07:35:36;101329.00;;;16.62;100.00
54262;BME280;40174;52.364;6.452;2023-07-20T07:38:03;101338.72;;;16.81;100.00
54262;BME280;40174;52.364;6.452;2023-07-20T07:40:30;101350.56;;;17.15;100.00
54262;BME280;40174;52.364;6.452;2023-07-20T07:42:57;101349.94;;;17.39;100.00
54262;BME280;40174;52.364;6.452;2023-07-20T07:45:24;101346.53;;;17.55;100.00
54262;BME280;40174;52.364;6.452;2023-07-20T07:47:50;101356.41;;;17.80;100.00
54262;BME280;40174;52.364;6.452;2023-07-20T07:50:18;101347.94;;;17.85;100.00
54262;BME280;40174;52.364;6.452;2023-07-20T07:52:45;101345.88;;;17.79;100.00
54262;BME280;40174;52.364;6.452;2023-07-20T07:55:12;101346.69;;;17.79;100.00
54262;BME280;40174;52.364;6.452;2023-07-20T07:57:39;101342.97;;;17.72;100.00
54262;BME280;40174;52.364;6.452;2023-07-20T08:00:06;101348.94;;;17.84;100.00
54262;BME280;40174;52.364;6.452;2023-07-20T08:02:37;101352.25;;;18.12;100.00
54262;BME280;40174;52.364;6.452;2023-07-20T08:05:04;101347.59;;;18.14;100.00
54262;BME280;40174;52.364;6.452;2023-07-20T08:07:32;101348.19;;;18.42;100.00
54262;BME280;40174;52.364;6.452;2023-07-20T08:09:58;101349.41;;;18.48;100.00
54262;BME280;40174;52.364;6.452;2023-07-20T08:12:26;101348.78;;;18.70;100.00
54262;BME280;40174;52.364;6.452;2023-07-20T08:14:52;101357.91;;;18.52;100.00
54262;BME280;40174;52.364;6.452;2023-07-20T08:17:19;101359.16;;;18.65;100.00
54262;BME280;40174;52.364;6.452;2023-07-20T08:19:46;101356.31;;;18.75;100.00
54262;BME280;40174;52.364;6.452;2023-07-20T08:22:13;101363.25;;;18.86;100.00
54262;BME280;40174;52.364;6.452;2023-07-20T08:24:41;101362.94;;;18.97;100.00
54262;BME280;40174;52.364;6.452;2023-07-20T08:27:08;101369.47;;;19.27;100.00
54262;BME280;40174;52.364;6.452;2023-07-20T08:29:35;101359.09;;;19.41;100.00
54262;BME280;40174;52.364;6.452;2023-07-20T08:32:02;101362.28;;;19.36;100.00
54262;BME280;40174;52.364;6.452;2023-07-20T08:34:29;101356.06;;;19.27;98.66
54262;BME280;40174;52.364;6.452;2023-07-20T08:36:56;101364.28;;;19.18;94.26
54262;BME280;40174;52.364;6.452;2023-07-20T08:39:23;101359.75;;;19.18;93.25
54262;BME280;40174;52.364;6.452;2023-07-20T08:41:51;101365.28;;;19.25;94.06
54262;BME280;40174;52.364;6.452;2023-07-20T08:44:18;101365.31;;;19.33;96.03
54262;BME280;40174;52.364;6.452;2023-07-20T08:46:47;101367.81;;;19.43;91.56
54262;BME280;40174;52.364;6.452;2023-07-20T08:49:16;101366.28;;;19.40;90.82
54262;BME280;40174;52.364;6.452;2023-07-20T08:51:45;101371.31;;;19.51;91.48
54262;BME280;40174;52.364;6.452;2023-07-20T08:54:13;101362.41;;;19.67;91.16
54262;BME280;40174;52.364;6.452;2023-07-20T08:56:41;101367.44;;;19.79;91.80
54262;BME280;40174;52.364;6.452;2023-07-20T08:59:11;101370.66;;;19.82;88.52
54262;BME280;40174;52.364;6.452;2023-07-20T09:01:39;101373.50;;;19.81;89.86
54262;BME280;40174;52.364;6.452;2023-07-20T09:04:06;101374.31;;;19.65;87.39
54262;BME280;40174;52.364;6.452;2023-07-20T09:06:35;101363.63;;;19.40;89.09
54262;BME280;40174;52.364;6.452;2023-07-20T09:09:02;101365.63;;;19.30;86.13
54262;BME280;40174;52.364;6.452;2023-07-20T09:11:29;101367.81;;;19.43;87.99
54262;BME280;40174;52.364;6.452;2023-07-20T09:14:05;101373.16;;;19.76;89.24
54262;BME280;40174;52.364;6.452;2023-07-20T09:16:47;101356.06;;;19.85;81.13
54262;BME280;40174;52.364;6.452;2023-07-20T09:19:14;101367.41;;;19.95;80.43
54262;BME280;40174;52.364;6.452;2023-07-20T09:21:44;101361.00;;;20.04;83.25
54262;BME280;40174;52.364;6.452;2023-07-20T09:24:11;101364.25;;;19.91;80.80
54262;BME280;40174;52.364;6.452;2023-07-20T09:26:40;101361.22;;;19.94;77.31
54262;BME280;40174;52.364;6.452;2023-07-20T09:29:08;101362.16;;;20.18;80.25
54262;BME280;40174;52.364;6.452;2023-07-20T09:31:37;101359.97;;;20.53;75.80
54262;BME280;40174;52.364;6.452;2023-07-20T09:34:04;101357.16;;;20.46;75.52
54262;BME280;40174;52.364;6.452;2023-07-20T09:36:33;101363.72;;;20.44;72.53
54262;BME280;40174;52.364;6.452;2023-07-20T09:39:01;101363.50;;;20.53;73.02
54262;BME280;40174;52.364;6.452;2023-07-20T09:41:29;101353.50;;;20.79;74.43
54262;BME280;40174;52.364;6.452;2023-07-20T09:43:56;101354.75;;;20.91;71.98
54262;BME280;40174;52.364;6.452;2023-07-20T09:46:23;101354.25;;;20.87;72.83
54262;BME280;40174;52.364;6.452;2023-07-20T09:48:54;101358.81;;;20.87;70.43
54262;BME280;40174;52.364;6.452;2023-07-20T09:51:22;101356.25;;;20.93;74.95
54262;BME280;40174;52.364;6.452;2023-07-20T09:53:49;101359.16;;;21.07;66.50
54262;BME280;40174;52.364;6.452;2023-07-20T09:56:21;101361.31;;;21.11;67.72
54262;BME280;40174;52.364;6.452;2023-07-20T09:58:48;101355.72;;;21.44;68.88
54262;BME280;40174;52.364;6.452;2023-07-20T10:01:18;101359.38;;;21.66;67.53
54262;BME280;40174;52.364;6.452;2023-07-20T10:03:47;101354.72;;;21.60;67.67
54262;BME280;40174;52.364;6.452;2023-07-20T10:06:20;101353.41;;;21.56;63.56
54262;BME280;40174;52.364;6.452;2023-07-20T10:08:47;101357.59;;;21.35;67.75
54262;BME280;40174;52.364;6.452;2023-07-20T10:11:15;101359.88;;;21.24;73.53
54262;BME280;40174;52.364;6.452;2023-07-20T10:13:43;101351.03;;;21.38;74.95
54262;BME280;40174;52.364;6.452;2023-07-20T10:16:11;101357.88;;;21.64;72.05
54262;BME280;40174;52.364;6.452;2023-07-20T10:18:41;101353.88;;;21.74;69.57
54262;BME280;40174;52.364;6.452;2023-07-20T10:21:17;101351.34;;;21.43;67.15
54262;BME280;40174;52.364;6.452;2023-07-20T10:23:44;101351.56;;;21.33;71.08
54262;BME280;40174;52.364;6.452;2023-07-20T10:26:11;101356.53;;;21.22;69.72
54262;BME280;40174;52.364;6.452;2023-07-20T10:28:39;101357.22;;;21.24;73.71
54262;BME280;40174;52.364;6.452;2023-07-20T10:31:07;101364.06;;;21.26;73.80
54262;BME280;40174;52.364;6.452;2023-07-20T10:33:34;101356.84;;;21.04;78.11
54262;BME280;40174;52.364;6.452;2023-07-20T10:36:03;101367.22;;;20.84;80.53
54262;BME280;40174;52.364;6.452;2023-07-20T10:38:41;101366.25;;;20.45;84.58
54262;BME280;40174;52.364;6.452;2023-07-20T10:41:18;101360.63;;;20.24;87.37
54262;BME280;40174;52.364;6.452;2023-07-20T10:43:46;101360.16;;;20.12;88.55
54262;BME280;40174;52.364;6.452;2023-07-20T10:46:13;101359.19;;;20.05;89.24
54262;BME280;40174;52.364;6.452;2023-07-20T10:48:59;101355.50;;;19.98;90.74
54262;BME280;40174;52.364;6.452;2023-07-20T10:51:26;101353.00;;;19.96;89.77
54262;BME280;40174;52.364;6.452;2023-07-20T10:53:54;101355.03;;;19.94;90.76
54262;BME280;40174;52.364;6.452;2023-07-20T10:56:26;101357.69;;;20.02;90.51
54262;BME280;40174;52.364;6.452;2023-07-20T10:58:56;101348.78;;;20.02;89.75
54262;BME280;40174;52.364;6.452;2023-07-20T11:01:28;101354.34;;;19.92;89.77
54262;BME280;40174;52.364;6.452;2023-07-20T11:03:57;101352.81;;;19.98;90.19
54262;BME280;40174;52.364;6.452;2023-07-20T11:06:32;101348.31;;;19.90;90.39
54262;BME280;40174;52.364;6.452;2023-07-20T11:09:06;101351.34;;;19.87;89.83
54262;BME280;40174;52.364;6.452;2023-07-20T11:11:37;101352.84;;;19.89;89.79
54262;BME280;40174;52.364;6.452;2023-07-20T11:14:06;101350.00;;;19.91;88.55
54262;BME280;40174;52.364;6.452;2023-07-20T11:16:36;101351.84;;;19.90;88.68
54262;BME280;40174;52.364;6.452;2023-07-20T11:19:04;101348.31;;;19.90;87.11
54262;BME280;40174;52.364;6.452;2023-07-20T11:21:36;101353.44;;;20.16;89.27
54262;BME280;40174;52.364;6.452;2023-07-20T11:24:05;101353.41;;;20.64;88.39
54262;BME280;40174;52.364;6.452;2023-07-20T11:26:46;101358.06;;;21.01;85.35
54262;BME280;40174;52.364;6.452;2023-07-20T11:29:13;101352.97;;;21.06;79.41
54262;BME280;40174;52.364;6.452;2023-07-20T11:31:41;101347.72;;;20.90;83.17
54262;BME280;40174;52.364;6.452;2023-07-20T11:34:11;101351.81;;;21.24;81.46
54262;BME280;40174;52.364;6.452;2023-07-20T11:36:39;101343.63;;;21.40;80.76
54262;BME280;40174;52.364;6.452;2023-07-20T11:39:09;101342.28;;;21.44;80.73
54262;BME280;40174;52.364;6.452;2023-07-20T11:41:36;101333.94;;;21.54;78.41
54262;BME280;40174;52.364;6.452;2023-07-20T11:44:04;101333.97;;;21.69;77.70
54262;BME280;40174;52.364;6.452;2023-07-20T11:46:33;101331.25;;;21.84;72.28
54262;BME280;40174;52.364;6.452;2023-07-20T11:49:00;101337.47;;;21.69;74.78
54262;BME280;40174;52.364;6.452;2023-07-20T11:51:28;101331.53;;;21.74;75.40
54262;BME280;40174;52.364;6.452;2023-07-20T11:53:55;101327.28;;;21.65;73.32
54262;BME280;40174;52.364;6.452;2023-07-20T11:56:24;101321.13;;;21.56;75.35
54262;BME280;40174;52.364;6.452;2023-07-20T11:58:54;101322.53;;;21.52;78.67
54262;BME280;40174;52.364;6.452;2023-07-20T12:01:25;101319.59;;;21.62;77.71
54262;BME280;40174;52.364;6.452;2023-07-20T12:03:55;101311.59;;;21.53;75.55
54262;BME280;40174;52.364;6.452;2023-07-20T12:06:23;101315.38;;;21.59;76.73
54262;BME280;40174;52.364;6.452;2023-07-20T12:08:50;101319.94;;;21.58;73.90
54262;BME280;40174;52.364;6.452;2023-07-20T12:11:32;101320.03;;;21.50;75.45
54262;BME280;40174;52.364;6.452;2023-07-20T12:13:59;101309.06;;;21.52;74.96
54262;BME280;40174;52.364;6.452;2023-07-20T12:16:27;101309.72;;;21.54;73.15
54262;BME280;40174;52.364;6.452;2023-07-20T12:18:59;101308.81;;;21.62;69.00
54262;BME280;40174;52.364;6.452;2023-07-20T12:21:26;101312.72;;;21.74;72.52
54262;BME280;40174;52.364;6.452;2023-07-20T12:23:56;101310.88;;;21.89;71.02
54262;BME280;40174;52.364;6.452;2023-07-20T12:26:22;101303.34;;;21.99;70.34
54262;BME280;40174;52.364;6.452;2023-07-20T12:28:52;101306.75;;;22.08;65.40
54262;BME280;40174;52.364;6.452;2023-07-20T12:31:19;101298.53;;;22.25;69.40
54262;BME280;40174;52.364;6.452;2023-07-20T12:33:46;101294.94;;;22.39;68.56
54262;BME280;40174;52.364;6.452;2023-07-20T12:36:13;101298.50;;;22.61;65.07
54262;BME280;40174;52.364;6.452;2023-07-20T12:38:40;101307.16;;;22.78;68.21
54262;BME280;40174;52.364;6.452;2023-07-20T12:41:07;101304.91;;;22.60;70.15
54262;BME280;40174;52.364;6.452;2023-07-20T12:43:34;101300.78;;;23.00;68.07
54262;BME280;40174;52.364;6.452;2023-07-20T12:46:02;101307.56;;;22.96;65.58
54262;BME280;40174;52.364;6.452;2023-07-20T12:48:29;101301.72;;;22.71;67.08
54262;BME280;40174;52.364;6.452;2023-07-20T12:50:56;101302.16;;;22.53;66.25